Hildebran, NC

8:34 PM EDT on April 26, 2015 (GMT -0400)
Statesville Municipal | | Change Station
CLOSE
Current Station
Airport
Location: Statesville,
Elevation: 965 ft
Nearby Weather Stations

Elev 965 ft 35.76 °N, 80.96 °W | Updated 19 minutes ago

Overcast
Overcast
53 °F
Feels Like 53 °F
N
4
Wind Variable Wind from NE

Today
High -- | Low -- °F
--% Chance of Precip.
Yesterday
High -- | Low -- °F
Precip. -- in
6:39 AM 8:08 PM
First Quarter, 60% visible
Pressure 29.75 in
Visibility 10.0 miles
Clouds Mostly Cloudy 2600 ft
Overcast 3900 ft
Dew Point 47 °F
Humidity 81%
Rainfall 0.00 in
Snow Depth Not available.
UV 0 out of 12
Pollen 9.80 out of 12
Air Quality Not available.
Flu Activity Sporadic
METAR KSVH 270015Z AUTO 05003KT 10SM BKN026 OVC039 12/09 A2975 RMK AO2 T01160085

More Conditions Fewer Conditions

Pressure 29.75 in
Visibility 10.0 miles
Clouds Mostly Cloudy 2600 ft
Overcast 3900 ft
Dew Point 47 °F
Humidity 81%
Rainfall 0.00 in
Snow Depth Not available.
UV 0 out of 12
Pollen 9.80 out of 12
Air Quality Not available.
Flu Activity Sporadic
METAR KSVH 270015Z AUTO 05003KT 10SM BKN026 OVC039 12/09 A2975 RMK AO2 T01160085

More Conditions Fewer Conditions

The full scope of the disaster following a powerful 7.8-magnitude earthquake in Nepal may not come into view for days, but global charities are already sending emergency aid. Click to see how you can help.

10-Day Weather Forecast

Almanac

Astronomy

Apr. 26, 2015 Rise Set
Actual Time
Civil Twilight
Nautical Twilight
Astronomical Twilight
Moon
Length of Visible Light
Length of Day
Tomorrow will be .
, % of the Moon is Illuminated

Today's Extremes

State Highs State Lows

Community

WunderPhotos

Upload Photos

1,817,176 photos uploaded!

WunderBlogs® & News

Nearby

Air Quality

  Air Quality AQ Index Pollutant
Not available.

Snow Depth

Station Depth Elevation

Earthquake Activity

City Distance Mag. Time & Date
Minimum magnitude displayed is 2.5.

Coastal Water Temperatures

Place Temperature

Stations

Nearby Weather Stations

Station Location Temp. Windchill Dew Point Humidity Wind Precip. Elev Updated Type